createdAt,value
2023-01-17T00:02:57.947Z,2.60
2023-01-17T00:06:19.523Z,3.70
2023-01-17T00:09:41.252Z,4.00
2023-01-17T00:12:52.655Z,2.60
2023-01-17T00:15:55.802Z,3.70
2023-01-17T00:19:17.484Z,2.80
2023-01-17T00:22:45.390Z,1.70
2023-01-17T00:26:03.463Z,2.10
2023-01-17T00:29:06.385Z,2.30
2023-01-17T00:32:13.207Z,4.50
2023-01-17T00:35:16.903Z,2.70
2023-01-17T00:38:22.401Z,2.50
2023-01-17T00:41:25.264Z,2.70
2023-01-17T00:44:47.019Z,2.90
2023-01-17T00:48:08.923Z,2.20
2023-01-17T00:51:30.696Z,2.30
2023-01-17T00:54:52.524Z,2.70
2023-01-17T00:58:14.409Z,4.40
2023-01-17T01:01:36.208Z,3.80
2023-01-17T01:04:58.492Z,2.20
2023-01-17T01:08:20.426Z,2.30
2023-01-17T01:11:42.344Z,3.10
2023-01-17T01:15:03.991Z,3.60
2023-01-17T01:18:27.529Z,2.60
2023-01-17T01:21:49.270Z,2.20
2023-01-17T01:25:11.040Z,3.40
2023-01-17T01:28:34.009Z,2.80
2023-01-17T01:31:55.611Z,4.10
2023-01-17T01:34:58.481Z,3.30
2023-01-17T01:38:02.819Z,3.00
2023-01-17T01:41:06.796Z,2.80
2023-01-17T01:44:42.608Z,4.00
2023-01-17T01:47:47.416Z,2.30
2023-01-17T01:50:51.196Z,2.60
2023-01-17T01:54:00.037Z,5.10
2023-01-17T01:57:08.096Z,1.90
2023-01-17T02:00:19.381Z,3.50
2023-01-17T02:03:27.735Z,5.00
2023-01-17T02:06:35.433Z,3.60
2023-01-17T02:09:38.579Z,4.00
2023-01-17T02:12:43.214Z,2.80
2023-01-17T02:16:16.305Z,3.40
2023-01-17T02:19:43.833Z,3.90
2023-01-17T02:22:49.815Z,3.10
2023-01-17T02:26:29.851Z,5.30
2023-01-17T02:29:35.726Z,2.60
2023-01-17T02:32:57.494Z,2.70
2023-01-17T02:36:19.248Z,3.60
2023-01-17T02:39:27.127Z,4.40
2023-01-17T02:42:37.385Z,3.20
2023-01-17T02:45:40.503Z,3.70
2023-01-17T02:48:45.015Z,3.10
2023-01-17T02:51:51.001Z,2.00
2023-01-17T02:55:01.462Z,3.70
2023-01-17T02:58:25.655Z,2.60
2023-01-17T03:01:43.604Z,2.60
2023-01-17T03:04:50.121Z,3.50
2023-01-17T03:07:54.013Z,4.00
2023-01-17T03:10:57.572Z,4.10
2023-01-17T03:14:00.453Z,3.60
2023-01-17T03:17:03.583Z,2.90
2023-01-17T03:20:06.817Z,2.10
2023-01-17T03:23:09.737Z,2.40
2023-01-17T03:26:12.756Z,1.20
2023-01-17T03:29:16.713Z,3.80
2023-01-17T03:32:19.567Z,2.40
2023-01-17T03:35:22.527Z,2.80
2023-01-17T03:38:26.549Z,2.70
2023-01-17T03:41:29.505Z,2.40
2023-01-17T03:44:34.323Z,2.50
2023-01-17T03:47:37.212Z,4.00
2023-01-17T03:50:40.118Z,2.00
2023-01-17T03:53:43.345Z,1.90
2023-01-17T03:56:46.221Z,2.60
2023-01-17T03:59:49.320Z,3.30
2023-01-17T04:02:52.189Z,1.80
2023-01-17T04:05:55.136Z,2.20
2023-01-17T04:08:57.999Z,2.50
2023-01-17T04:12:04.378Z,2.60
2023-01-17T04:15:07.812Z,2.30
2023-01-17T04:18:12.389Z,3.20
2023-01-17T04:21:15.338Z,2.90
2023-01-17T04:24:18.313Z,2.20
2023-01-17T04:27:21.182Z,2.30
2023-01-17T04:30:24.378Z,1.80
2023-01-17T04:33:27.301Z,2.30
2023-01-17T04:36:30.171Z,2.40
2023-01-17T04:39:33.043Z,2.40
2023-01-17T04:42:35.991Z,2.20
2023-01-17T04:45:38.934Z,2.70
2023-01-17T04:48:41.762Z,3.30
2023-01-17T04:51:44.614Z,2.60
2023-01-17T04:54:51.252Z,2.60
2023-01-17T04:57:54.703Z,3.00
2023-01-17T05:01:02.216Z,2.00
2023-01-17T05:04:05.227Z,2.30
2023-01-17T05:07:08.312Z,2.10
2023-01-17T05:10:11.442Z,2.20
2023-01-17T05:13:14.861Z,2.50
2023-01-17T05:16:19.489Z,2.80
2023-01-17T05:19:23.959Z,2.70
2023-01-17T05:22:26.799Z,2.10
2023-01-17T05:25:31.764Z,2.30
2023-01-17T05:28:34.745Z,3.30
2023-01-17T05:31:38.112Z,2.90
2023-01-17T05:34:41.095Z,3.10
2023-01-17T05:37:49.279Z,2.40
2023-01-17T05:40:52.327Z,2.00
2023-01-17T05:43:55.168Z,3.40
2023-01-17T05:46:58.070Z,1.50
2023-01-17T05:50:00.887Z,4.40
2023-01-17T05:53:09.388Z,2.10
2023-01-17T05:56:12.148Z,4.20
2023-01-17T05:59:17.251Z,3.60
2023-01-17T06:02:21.685Z,3.00
2023-01-17T06:05:26.082Z,3.20
2023-01-17T06:08:28.950Z,3.40
2023-01-17T06:11:31.798Z,3.90
2023-01-17T06:14:34.825Z,2.80
2023-01-17T06:17:37.809Z,3.70
2023-01-17T06:20:41.744Z,5.00
2023-01-17T06:23:44.536Z,3.20
2023-01-17T06:26:47.469Z,3.10
2023-01-17T06:29:50.389Z,4.60
2023-01-17T06:32:55.372Z,5.20
2023-01-17T06:35:58.435Z,2.60
2023-01-17T06:39:01.362Z,2.40
2023-01-17T06:42:04.319Z,2.20
2023-01-17T06:45:08.067Z,2.60
2023-01-17T06:48:11.149Z,3.00
2023-01-17T06:51:14.479Z,2.80
2023-01-17T06:54:18.950Z,3.80
2023-01-17T06:57:21.844Z,3.90
2023-01-17T07:00:25.242Z,4.90
2023-01-17T07:03:28.309Z,5.60
2023-01-17T07:06:31.216Z,3.30
2023-01-17T07:09:34.149Z,4.80
2023-01-17T07:12:36.946Z,5.20
2023-01-17T07:15:40.400Z,4.50
2023-01-17T07:18:43.220Z,4.00
2023-01-17T07:21:46.026Z,5.10
2023-01-17T07:24:48.864Z,6.50
2023-01-17T07:27:57.851Z,4.30
2023-01-17T07:31:08.194Z,5.00
2023-01-17T07:34:11.117Z,4.40
2023-01-17T07:37:15.297Z,3.50
2023-01-17T07:40:20.247Z,7.10
2023-01-17T07:43:23.270Z,3.60
2023-01-17T07:46:26.313Z,4.80
2023-01-17T07:49:29.259Z,4.30
2023-01-17T07:52:32.283Z,5.50
2023-01-17T07:55:35.513Z,4.10
2023-01-17T07:58:38.474Z,4.00
2023-01-17T08:01:41.705Z,2.70
2023-01-17T08:04:45.583Z,4.90
2023-01-17T08:07:48.560Z,4.40
2023-01-17T08:10:51.752Z,4.10
2023-01-17T08:13:59.522Z,4.90
2023-01-17T08:17:12.463Z,5.40
2023-01-17T08:20:16.662Z,3.80
2023-01-17T08:23:19.839Z,3.50
2023-01-17T08:26:23.346Z,3.20
2023-01-17T08:29:26.515Z,3.50
2023-01-17T08:32:29.604Z,3.40
2023-01-17T08:35:33.886Z,3.70
2023-01-17T08:38:38.547Z,4.50
2023-01-17T08:41:41.480Z,3.30
2023-01-17T08:44:44.412Z,3.90
2023-01-17T08:47:47.473Z,5.40
2023-01-17T08:50:50.611Z,3.50
2023-01-17T08:53:55.686Z,2.80
2023-01-17T08:56:58.756Z,3.80
2023-01-17T09:00:01.913Z,3.20
2023-01-17T09:03:04.842Z,4.60
2023-01-17T09:06:14.193Z,3.90
2023-01-17T09:09:17.942Z,6.40
2023-01-17T09:12:22.535Z,9.00
2023-01-17T09:15:26.106Z,9.70
2023-01-17T09:18:30.817Z,10.50
2023-01-17T09:21:33.820Z,7.90
2023-01-17T09:24:36.806Z,9.00
2023-01-17T09:27:39.705Z,4.40
2023-01-17T09:30:42.796Z,3.60
2023-01-17T09:33:45.821Z,2.80
2023-01-17T09:36:49.020Z,5.20
2023-01-17T09:39:52.397Z,4.40
2023-01-17T09:43:01.560Z,5.30
2023-01-17T09:46:07.392Z,4.90
2023-01-17T09:49:21.974Z,5.30
2023-01-17T09:52:25.181Z,4.00
2023-01-17T09:55:37.113Z,4.00
2023-01-17T09:58:58.182Z,2.40
2023-01-17T10:02:26.735Z,4.10
2023-01-17T10:06:03.323Z,1.80
2023-01-17T10:09:23.021Z,3.00
2023-01-17T10:12:40.199Z,2.30
2023-01-17T10:16:12.855Z,2.50
2023-01-17T10:19:51.632Z,3.10
2023-01-17T10:23:04.041Z,5.20
2023-01-17T10:26:25.292Z,3.10
2023-01-17T10:29:33.481Z,3.40
2023-01-17T10:32:42.594Z,3.90
2023-01-17T10:35:55.153Z,3.00
2023-01-17T10:39:02.999Z,4.60
2023-01-17T10:42:23.504Z,2.50
2023-01-17T10:45:31.319Z,2.40
2023-01-17T10:48:45.284Z,1.80
2023-01-17T10:52:11.929Z,1.60
2023-01-17T10:55:34.373Z,2.10
2023-01-17T10:58:37.586Z,2.90
2023-01-17T11:01:41.758Z,2.40
2023-01-17T11:04:51.183Z,1.70
2023-01-17T11:08:07.871Z,2.40
2023-01-17T11:11:10.890Z,1.80
2023-01-17T11:14:22.191Z,2.30
2023-01-17T11:17:27.795Z,2.60
2023-01-17T11:20:36.215Z,2.50
2023-01-17T11:23:44.313Z,3.20
2023-01-17T11:26:49.622Z,3.20
2023-01-17T11:30:18.160Z,1.40
2023-01-17T11:33:56.962Z,1.40
2023-01-17T11:37:29.114Z,2.80
2023-01-17T11:40:44.416Z,3.30
2023-01-17T11:43:57.458Z,3.00
2023-01-17T11:47:13.186Z,3.50
2023-01-17T11:50:27.416Z,3.30
2023-01-17T11:53:37.313Z,5.10
2023-01-17T11:56:45.244Z,2.90
2023-01-17T11:59:49.581Z,3.80
2023-01-17T12:03:29.727Z,2.70
2023-01-17T12:06:58.437Z,2.30
2023-01-17T12:10:37.483Z,3.30
2023-01-17T12:14:07.209Z,4.30
2023-01-17T12:17:22.889Z,2.40
2023-01-17T12:20:42.506Z,2.10
2023-01-17T12:24:08.248Z,2.10
2023-01-17T12:27:35.426Z,3.10
2023-01-17T12:31:14.986Z,1.40
2023-01-17T12:34:26.199Z,1.80
2023-01-17T12:37:57.379Z,2.90
2023-01-17T12:41:26.752Z,2.20
2023-01-17T12:44:45.644Z,3.20
2023-01-17T12:51:07.043Z,2.80
2023-01-17T12:54:21.051Z,3.70
2023-01-17T12:57:33.804Z,2.50
2023-01-17T13:00:39.196Z,4.30
2023-01-17T13:03:57.816Z,2.70
2023-01-17T13:07:00.871Z,2.50
2023-01-17T13:10:18.550Z,3.70
2023-01-17T13:13:27.493Z,3.40
2023-01-17T13:17:00.851Z,2.70
2023-01-17T13:20:19.404Z,2.90
2023-01-17T13:23:48.018Z,2.50
2023-01-17T13:26:50.942Z,1.80
2023-01-17T13:30:16.210Z,2.50
2023-01-17T13:33:47.242Z,2.60
2023-01-17T13:37:18.458Z,3.20
2023-01-17T13:40:49.161Z,3.90
2023-01-17T13:44:11.322Z,3.00
2023-01-17T13:47:17.139Z,4.00
2023-01-17T13:50:38.958Z,3.10
2023-01-17T13:53:44.775Z,3.30
2023-01-17T13:56:47.770Z,2.60
2023-01-17T13:59:50.671Z,2.40
2023-01-17T14:02:55.535Z,3.10
2023-01-17T14:05:58.676Z,4.60
2023-01-17T14:09:08.062Z,2.90
2023-01-17T14:12:15.135Z,3.40
2023-01-17T14:15:28.577Z,3.60
2023-01-17T14:18:41.666Z,3.70
2023-01-17T14:21:45.307Z,3.10
2023-01-17T14:25:03.803Z,3.80
2023-01-17T14:28:23.405Z,2.40
2023-01-17T14:31:28.165Z,4.20
2023-01-17T14:34:31.420Z,4.70
2023-01-17T14:37:52.216Z,3.50
2023-01-17T14:41:01.807Z,6.20
2023-01-17T14:44:04.958Z,5.00
2023-01-17T14:47:13.903Z,5.40
2023-01-17T14:50:22.025Z,6.40
2023-01-17T14:53:28.314Z,2.20
2023-01-17T14:59:34.488Z,1.70
2023-01-17T15:02:44.256Z,4.10
2023-01-17T15:05:50.991Z,2.80
2023-01-17T15:08:54.297Z,3.40
2023-01-17T15:11:58.208Z,3.60
2023-01-17T15:15:01.752Z,4.20
2023-01-17T15:18:14.743Z,3.80
2023-01-17T15:21:21.403Z,5.10
2023-01-17T15:24:34.569Z,5.90
2023-01-17T15:27:38.751Z,4.60
2023-01-17T15:31:05.810Z,5.10
2023-01-17T15:34:22.692Z,5.20
2023-01-17T15:37:40.671Z,6.10
2023-01-17T15:40:45.830Z,6.80
2023-01-17T15:43:48.847Z,7.10
2023-01-17T15:46:51.746Z,7.80
2023-01-17T15:49:54.700Z,11.50
2023-01-17T15:53:01.186Z,13.40
2023-01-17T15:56:33.706Z,18.60
2023-01-17T15:59:45.675Z,16.20
2023-01-17T16:02:55.418Z,8.20
2023-01-17T16:06:03.170Z,5.00
2023-01-17T16:09:22.545Z,7.60
2023-01-17T16:12:25.447Z,5.90
2023-01-17T16:15:29.725Z,5.20
2023-01-17T16:18:32.722Z,5.00
2023-01-17T16:21:35.644Z,7.50
2023-01-17T16:24:38.770Z,6.50
2023-01-17T16:27:43.258Z,6.30
2023-01-17T16:30:48.632Z,7.20
2023-01-17T16:33:51.980Z,6.10
2023-01-17T16:36:54.909Z,7.70
2023-01-17T16:39:57.887Z,2.60
2023-01-17T16:43:01.085Z,3.20
2023-01-17T16:46:04.149Z,9.00
2023-01-17T16:49:07.137Z,12.40
2023-01-17T16:52:10.070Z,12.00
2023-01-17T16:55:16.467Z,14.20
2023-01-17T16:58:20.497Z,16.70
2023-01-17T17:01:23.643Z,9.90
2023-01-17T17:04:26.681Z,9.30
2023-01-17T17:07:29.641Z,8.70
2023-01-17T17:10:32.605Z,7.20
2023-01-17T17:13:36.498Z,8.10
2023-01-17T17:16:39.601Z,10.10
2023-01-17T17:19:44.980Z,5.70
2023-01-17T17:22:52.098Z,9.30
2023-01-17T17:25:56.575Z,7.60
2023-01-17T17:28:59.717Z,7.10
2023-01-17T17:32:02.654Z,7.90
2023-01-17T17:35:06.237Z,8.50
2023-01-17T17:38:09.378Z,8.30
2023-01-17T17:41:12.294Z,9.90
2023-01-17T17:44:15.335Z,10.00
2023-01-17T17:47:18.418Z,10.80
2023-01-17T17:50:21.355Z,7.90
2023-01-17T17:53:25.011Z,7.10
2023-01-17T17:56:30.065Z,7.00
2023-01-17T17:59:33.333Z,5.30
2023-01-17T18:02:36.297Z,7.20
2023-01-17T18:05:39.240Z,4.10
2023-01-17T18:08:42.349Z,9.60
2023-01-17T18:11:45.328Z,6.30
2023-01-17T18:14:48.247Z,6.50
2023-01-17T18:17:52.714Z,7.10
2023-01-17T18:20:55.806Z,8.10
2023-01-17T18:24:26.693Z,7.80
2023-01-17T18:28:54.752Z,26.70
2023-01-17T18:34:11.113Z,7.30
2023-01-17T18:37:14.141Z,5.10
2023-01-17T18:40:17.416Z,12.80
2023-01-17T18:43:20.397Z,8.90
2023-01-17T18:46:26.146Z,7.10
2023-01-17T18:49:29.528Z,10.20
2023-01-17T18:52:34.065Z,8.70
2023-01-17T18:55:36.913Z,8.40
2023-01-17T18:58:42.575Z,12.20
2023-01-17T19:01:46.163Z,8.30
2023-01-17T19:04:49.431Z,11.20
2023-01-17T19:07:52.715Z,15.20
2023-01-17T19:10:55.949Z,13.80
2023-01-17T19:13:59.300Z,13.90
2023-01-17T19:17:02.389Z,12.20
2023-01-17T19:20:07.215Z,14.70
2023-01-17T19:23:10.349Z,16.10
2023-01-17T19:26:16.966Z,13.20
2023-01-17T19:29:19.984Z,23.10
2023-01-17T19:32:22.912Z,21.40
2023-01-17T19:35:25.991Z,22.80
2023-01-17T19:38:28.929Z,20.40
2023-01-17T19:41:34.045Z,26.00
2023-01-17T19:44:37.082Z,25.50
2023-01-17T19:47:40.615Z,25.80
2023-01-17T19:50:43.505Z,23.40
2023-01-17T19:53:46.655Z,12.80
2023-01-17T19:56:49.749Z,5.40
2023-01-17T19:59:52.624Z,5.10
2023-01-17T20:02:55.550Z,5.40
2023-01-17T20:05:58.785Z,4.60
2023-01-17T20:09:01.905Z,5.50
2023-01-17T20:12:05.454Z,4.20
2023-01-17T20:15:08.817Z,3.60
2023-01-17T20:18:12.966Z,3.60
2023-01-17T20:21:21.581Z,5.40
2023-01-17T20:24:24.760Z,3.30
2023-01-17T20:27:28.294Z,3.60
2023-01-17T20:30:33.094Z,3.40
2023-01-17T20:33:36.684Z,5.40
2023-01-17T20:36:41.822Z,2.10
2023-01-17T20:39:45.569Z,4.40
2023-01-17T20:42:48.649Z,3.20
2023-01-17T20:45:55.829Z,3.30
2023-01-17T20:49:01.202Z,2.60
2023-01-17T20:52:06.106Z,3.50
2023-01-17T20:55:09.618Z,2.70
2023-01-17T20:58:12.615Z,2.90
2023-01-17T21:01:21.400Z,4.10
2023-01-17T21:04:26.108Z,2.40
2023-01-17T21:07:42.478Z,2.90
2023-01-17T21:10:49.144Z,4.70
2023-01-17T21:13:52.026Z,2.10
2023-01-17T21:16:55.026Z,2.20
2023-01-17T21:19:57.945Z,3.20
2023-01-17T21:23:00.846Z,3.30
2023-01-17T21:26:12.085Z,3.30
2023-01-17T21:29:16.303Z,2.90
2023-01-17T21:32:20.054Z,2.70
2023-01-17T21:35:22.983Z,2.90
2023-01-17T21:38:26.494Z,3.70
2023-01-17T21:41:31.855Z,3.40
2023-01-17T21:44:36.499Z,2.50
2023-01-17T21:47:44.678Z,3.20
2023-01-17T21:50:47.589Z,3.30
2023-01-17T21:53:50.770Z,4.80
2023-01-17T21:57:12.460Z,2.30
2023-01-17T22:00:15.998Z,4.60
2023-01-17T22:03:18.855Z,4.10
2023-01-17T22:06:24.001Z,4.30
2023-01-17T22:09:26.987Z,4.50
2023-01-17T22:12:29.791Z,4.40
2023-01-17T22:15:36.554Z,4.20
2023-01-17T22:18:41.539Z,4.10
2023-01-17T22:21:44.384Z,5.40
2023-01-17T22:24:47.402Z,4.40
2023-01-17T22:27:50.301Z,2.50
2023-01-17T22:30:53.256Z,3.20
2023-01-17T22:34:01.949Z,3.30
2023-01-17T22:37:10.157Z,2.50
2023-01-17T22:40:13.582Z,1.70
2023-01-17T22:43:16.565Z,1.60
2023-01-17T22:46:27.820Z,0.40
2023-01-17T22:49:30.867Z,1.20
2023-01-17T22:52:33.817Z,2.30
2023-01-17T22:55:36.733Z,0.80
2023-01-17T22:58:50.593Z,2.00
2023-01-17T23:01:53.795Z,1.20
2023-01-17T23:04:56.724Z,2.20
2023-01-17T23:08:02.117Z,2.90
2023-01-17T23:11:44.027Z,3.60
2023-01-17T23:15:05.653Z,1.20
2023-01-17T23:18:28.185Z,4.40
2023-01-17T23:21:51.042Z,1.30
2023-01-17T23:25:04.109Z,3.90
2023-01-17T23:28:14.601Z,3.20
2023-01-17T23:31:17.599Z,2.80
2023-01-17T23:34:20.702Z,6.40
2023-01-17T23:37:48.108Z,4.00
2023-01-17T23:41:17.488Z,6.30
2023-01-17T23:44:20.447Z,5.20
2023-01-17T23:47:23.522Z,7.30
2023-01-17T23:50:26.607Z,7.70
2023-01-17T23:53:29.445Z,9.00
2023-01-17T23:56:32.309Z,10.20
2023-01-17T23:59:35.258Z,10.70
